Time;durP1;ratioP1;P1;durP2;ratioP2;P2;SDS_P1;SDS_P2;PMS_P1;PMS_P2;Temp;Humidity;BMP_temperature;BMP_pressure;BME280_temperature;BME280_humidity;BME280_pressure;Samples;Min_cycle;Max_cycle;Signal;HPM_P1;HPM_P2
2023/06/12 00:00:05;;;;;;;0.00;0.00;;;;;;;16.07;62.34;100557.31;5050165;28;20186;-75
2023/06/12 00:02:31;;;;;;;0.20;0.20;;;;;;;15.97;60.54;100553.06;5048886;28;20281;-75
2023/06/12 00:04:57;;;;;;;0.00;0.00;;;;;;;15.76;63.14;100564.16;5050268;28;20222;-75
2023/06/12 00:07:25;;;;;;;0.00;0.00;;;;;;;15.91;64.11;100570.13;5050460;28;20209;-75
2023/06/12 00:09:51;;;;;;;0.00;0.00;;;;;;;16.01;64.17;100564.97;5050089;28;20183;-75
2023/06/12 00:12:16;;;;;;;0.00;0.00;;;;;;;15.95;64.74;100563.63;5050284;28;20187;-75
2023/06/12 00:14:42;;;;;;;0.67;0.67;;;;;;;15.79;64.75;100561.91;5050382;28;20191;-74
2023/06/12 00:17:07;;;;;;;0.17;0.17;;;;;;;15.65;64.20;100554.75;5050164;28;20284;-75
2023/06/12 00:19:32;;;;;;;0.00;0.00;;;;;;;15.66;63.99;100553.63;5051801;28;20265;-74
2023/06/12 00:21:58;;;;;;;0.00;0.00;;;;;;;15.72;64.46;100554.19;5053042;28;20214;-75
2023/06/12 00:24:23;;;;;;;0.00;0.00;;;;;;;15.69;65.26;100561.19;5054203;28;20273;-75
2023/06/12 00:26:48;;;;;;;0.00;0.00;;;;;;;15.79;65.35;100568.22;5054350;28;20189;-74
2023/06/12 00:29:14;;;;;;;0.00;0.00;;;;;;;15.79;65.29;100561.91;5053463;28;20187;-75
2023/06/12 00:31:39;;;;;;;0.00;0.00;;;;;;;15.59;64.63;100558.88;5053963;28;20183;-75
2023/06/12 00:34:04;;;;;;;1.07;1.00;;;;;;;15.56;64.21;100561.47;5053977;28;20203;-75
2023/06/12 00:36:30;;;;;;;0.00;0.00;;;;;;;15.59;64.14;100556.13;5053998;28;20672;-75
2023/06/12 00:38:55;;;;;;;0.00;0.00;;;;;;;15.59;64.63;100569.06;5053499;28;20250;-75
2023/06/12 00:41:21;;;;;;;0.00;0.00;;;;;;;15.73;65.14;100573.13;5052832;28;20195;-75
2023/06/12 00:43:46;;;;;;;0.10;0.10;;;;;;;15.70;65.04;100570.25;5053956;28;20299;-75
2023/06/12 00:46:12;;;;;;;0.00;0.00;;;;;;;15.56;64.99;100572.50;5053454;28;20175;-73
2023/06/12 00:48:40;;;;;;;0.40;0.40;;;;;;;15.63;65.11;100570.84;5053644;28;20648;-75
2023/06/12 00:51:08;;;;;;;0.67;0.67;;;;;;;15.30;65.77;100564.50;5051935;28;20183;-75
2023/06/12 00:53:36;;;;;;;0.20;0.13;;;;;;;15.15;66.52;100564.00;5053584;28;20199;-75
2023/06/12 00:56:02;;;;;;;0.67;0.40;;;;;;;15.16;66.62;100565.63;5053622;28;20179;-75
2023/06/12 00:58:27;;;;;;;0.00;0.00;;;;;;;15.20;66.95;100570.47;5053037;28;20619;-74
2023/06/12 01:00:54;;;;;;;0.00;0.00;;;;;;;15.14;66.99;100562.41;5053451;28;20252;-75
2023/06/12 01:03:21;;;;;;;0.00;0.00;;;;;;;15.10;67.48;100574.44;5053202;28;20241;-75
2023/06/12 01:05:47;;;;;;;0.00;0.00;;;;;;;15.33;67.40;100567.38;5053549;28;20241;-75
2023/06/12 01:08:28;;;;;;;0.00;0.00;;;;;;;15.46;66.71;100566.28;5053201;28;20171;-75
2023/06/12 01:11:05;;;;;;;0.10;0.10;;;;;;;15.38;66.48;100560.88;5053203;28;20232;-75
2023/06/12 01:13:31;;;;;;;0.67;0.67;;;;;;;15.17;66.97;100561.72;5053331;28;20202;-75
2023/06/12 01:15:56;;;;;;;1.33;0.87;;;;;;;15.02;67.08;100564.31;5051995;28;20187;-74
2023/06/12 01:18:22;;;;;;;0.10;0.10;;;;;;;15.01;67.79;100565.44;5051884;28;20207;-75
2023/06/12 01:20:49;;;;;;;0.00;0.00;;;;;;;14.95;67.00;100564.88;5053090;28;20187;-74
2023/06/12 01:23:15;;;;;;;0.00;0.00;;;;;;;14.89;67.67;100569.75;5053417;28;20271;-75
2023/06/12 01:26:14;;;;;;;0.00;0.00;;;;;;;14.89;67.93;100575.25;5052981;28;20183;-75
2023/06/12 01:29:12;;;;;;;0.00;0.00;;;;;;;14.87;67.98;100576.75;5051760;28;20604;-75
2023/06/12 01:31:43;;;;;;;1.00;1.00;;;;;;;15.05;68.28;100585.66;5052843;28;20273;-73
2023/06/12 01:34:15;;;;;;;0.00;0.00;;;;;;;14.98;68.28;100577.94;5051384;28;20211;-74
2023/06/12 01:36:46;;;;;;;0.00;0.00;;;;;;;14.87;68.39;100577.53;5053008;28;20661;-75
2023/06/12 01:39:13;;;;;;;0.67;0.67;;;;;;;14.82;68.32;100571.44;5050934;28;20310;-75
2023/06/12 01:41:39;;;;;;;0.00;0.00;;;;;;;14.70;69.03;100579.63;5052988;28;20187;-75
2023/06/12 01:44:09;;;;;;;0.23;0.23;;;;;;;14.75;69.28;100580.22;5052507;28;20203;-75
2023/06/12 01:46:35;;;;;;;0.00;0.00;;;;;;;14.73;69.72;100581.72;5052654;28;20385;-75
2023/06/12 01:49:04;;;;;;;0.10;0.10;;;;;;;14.65;69.74;100582.59;5052183;28;20214;-75
2023/06/12 01:51:29;;;;;;;0.20;0.20;;;;;;;14.55;69.74;100575.53;5052563;28;20211;-74
2023/06/12 01:53:55;;;;;;;3.23;1.30;;;;;;;14.36;70.98;100572.44;5052412;28;20234;-72
2023/06/12 01:56:24;;;;;;;0.00;0.00;;;;;;;14.21;70.37;100574.63;5052559;28;20245;-75
2023/06/12 01:58:50;;;;;;;0.00;0.00;;;;;;;14.15;70.70;100584.16;5052427;28;20230;-75
2023/06/12 02:01:15;;;;;;;1.07;1.03;;;;;;;14.30;70.85;100582.78;5051982;28;21099;-75
2023/06/12 02:03:41;;;;;;;0.00;0.00;;;;;;;14.23;71.65;100588.03;5052238;28;20206;-75
2023/06/12 02:06:07;;;;;;;0.20;0.20;;;;;;;14.33;71.71;100581.34;5052313;28;20565;-75
2023/06/12 02:08:32;;;;;;;0.00;0.00;;;;;;;14.35;70.95;100579.88;5052176;28;20608;-75
2023/06/12 02:10:57;;;;;;;0.00;0.00;;;;;;;14.36;71.62;100578.72;5050686;28;20197;-75
2023/06/12 02:13:23;;;;;;;0.50;0.50;;;;;;;14.54;71.48;100573.94;5051883;28;20210;-74
2023/06/12 02:15:48;;;;;;;0.17;0.17;;;;;;;14.37;71.33;100572.09;5052125;28;20197;-74
2023/06/12 02:18:13;;;;;;;0.00;0.00;;;;;;;14.35;72.03;100576.31;5051896;28;20693;-75
2023/06/12 02:20:39;;;;;;;0.00;0.00;;;;;;;14.23;72.25;100586.06;5052011;28;20218;-75
2023/06/12 02:23:04;;;;;;;0.00;0.00;;;;;;;14.42;72.08;100579.31;5051811;28;20199;-73
2023/06/12 02:25:29;;;;;;;0.93;0.93;;;;;;;14.40;72.21;100570.63;5052203;28;20187;-75
2023/06/12 02:27:55;;;;;;;0.00;0.00;;;;;;;14.32;72.44;100568.72;5051964;28;20179;-75
2023/06/12 02:30:20;;;;;;;0.00;0.00;;;;;;;14.42;73.12;100574.63;5051310;28;20668;-74
2023/06/12 02:32:47;;;;;;;0.00;0.00;;;;;;;14.42;73.73;100582.88;5050562;28;20260;-75
2023/06/12 02:35:12;;;;;;;0.20;0.20;;;;;;;14.39;73.44;100577.25;5050679;28;20191;-75
2023/06/12 02:37:38;;;;;;;0.00;0.00;;;;;;;14.29;73.80;100572.94;5051680;28;20203;-75
2023/06/12 02:40:04;;;;;;;0.10;0.10;;;;;;;14.24;74.14;100575.88;5051367;28;20640;-73
2023/06/12 02:42:29;;;;;;;0.00;0.00;;;;;;;14.18;74.62;100580.78;5050834;28;20203;-75
2023/06/12 02:44:54;;;;;;;0.00;0.00;;;;;;;14.13;75.45;100589.19;5051465;28;20745;-75
2023/06/12 02:47:19;;;;;;;0.00;0.00;;;;;;;14.33;75.87;100582.16;5051604;28;20179;-73
2023/06/12 02:49:45;;;;;;;0.90;0.90;;;;;;;14.43;74.99;100580.94;5051319;28;20187;-75
2023/06/12 02:52:11;;;;;;;0.07;0.07;;;;;;;14.42;74.64;100584.81;5051286;28;20179;-74
2023/06/12 02:54:36;;;;;;;0.00;0.00;;;;;;;14.30;74.68;100574.53;5050259;28;20187;-75
2023/06/12 02:57:02;;;;;;;0.13;0.13;;;;;;;14.14;74.56;100588.06;5051268;28;20195;-75
2023/06/12 02:59:27;;;;;;;0.13;0.13;;;;;;;14.07;74.76;100586.97;5050669;28;20191;-75
2023/06/12 03:01:53;;;;;;;0.10;0.10;;;;;;;14.00;75.50;100587.47;5051147;28;20190;-74
2023/06/12 03:04:20;;;;;;;0.00;0.00;;;;;;;14.04;75.94;100585.72;5051158;28;20739;-75
2023/06/12 03:06:47;;;;;;;0.00;0.00;;;;;;;13.97;76.43;100585.41;5051456;28;20197;-75
2023/06/12 03:09:15;;;;;;;1.13;1.13;;;;;;;13.94;76.57;100597.06;5050854;28;20590;-75
2023/06/12 03:11:41;;;;;;;0.00;0.00;;;;;;;13.88;77.10;100595.63;5051196;28;20220;-75
2023/06/12 03:14:07;;;;;;;2.03;0.50;;;;;;;13.74;77.37;100598.56;5050605;28;20205;-75
2023/06/12 03:16:33;;;;;;;0.30;0.30;;;;;;;13.64;76.55;100599.75;5051009;28;20186;-74
2023/06/12 03:18:59;;;;;;;0.37;0.37;;;;;;;13.61;76.63;100603.16;5050416;28;20562;-75
2023/06/12 03:21:24;;;;;;;0.17;0.17;;;;;;;13.53;77.24;100609.47;5050810;28;20190;-75
2023/06/12 03:23:50;;;;;;;0.00;0.00;;;;;;;13.54;77.16;100611.09;5050724;28;20281;-75
2023/06/12 03:26:15;;;;;;;0.00;0.00;;;;;;;13.48;77.46;100617.91;5050978;28;20182;-75
2023/06/12 03:28:41;;;;;;;0.00;0.00;;;;;;;13.75;78.02;100621.38;5050544;28;20794;-75
2023/06/12 03:31:06;;;;;;;0.00;0.00;;;;;;;13.98;77.33;100614.47;5050529;28;20194;-75
2023/06/12 03:33:31;;;;;;;0.47;0.47;;;;;;;14.08;77.55;100611.38;5049368;28;20210;-75
2023/06/12 03:35:57;;;;;;;5.97;2.23;;;;;;;14.13;77.70;100618.63;5050455;28;20236;-75
2023/06/12 03:38:22;;;;;;;1.90;1.90;;;;;;;14.08;77.48;100605.06;5050627;28;20200;-75
2023/06/12 03:40:48;;;;;;;0.00;0.00;;;;;;;13.99;77.78;100610.59;5049376;28;20553;-75
2023/06/12 03:43:13;;;;;;;0.00;0.00;;;;;;;14.02;77.85;100611.88;5048881;28;20238;-75
2023/06/12 03:45:38;;;;;;;0.00;0.00;;;;;;;14.07;77.52;100612.50;5051073;28;20197;-73
2023/06/12 03:48:04;;;;;;;0.00;0.00;;;;;;;14.12;77.90;100619.75;5050583;28;20208;-75
2023/06/12 03:50:29;;;;;;;0.00;0.00;;;;;;;14.13;77.60;100610.38;5050192;28;20269;-75
2023/06/12 03:52:55;;;;;;;0.00;0.00;;;;;;;14.12;77.91;100611.50;5050226;28;20205;-75
2023/06/12 03:55:21;;;;;;;0.00;0.00;;;;;;;14.23;78.22;100618.25;5050572;28;20190;-75
2023/06/12 03:57:46;;;;;;;0.00;0.00;;;;;;;13.85;78.24;100618.25;5050081;28;20211;-74
2023/06/12 04:00:12;;;;;;;0.00;0.00;;;;;;;14.01;78.49;100633.03;5050055;28;20187;-75
2023/06/12 04:02:38;;;;;;;1.70;1.70;;;;;;;14.18;78.25;100626.69;5050283;28;20260;-75
2023/06/12 04:05:03;;;;;;;0.00;0.00;;;;;;;14.20;78.03;100635.41;5050337;28;20182;-75
2023/06/12 04:07:28;;;;;;;0.00;0.00;;;;;;;14.20;77.76;100627.16;5050285;28;20268;-75
2023/06/12 04:09:54;;;;;;;0.00;0.00;;;;;;;14.19;78.07;100629.09;5050194;28;20532;-75
2023/06/12 04:12:20;;;;;;;0.27;0.27;;;;;;;13.70;78.64;100642.38;5050391;28;20710;-74
2023/06/12 04:14:45;;;;;;;0.00;0.00;;;;;;;13.48;80.77;100639.84;5049084;28;20266;-75
2023/06/12 04:17:10;;;;;;;0.00;0.00;;;;;;;13.61;81.06;100635.31;5048878;28;20183;-74
2023/06/12 04:19:36;;;;;;;0.00;0.00;;;;;;;13.94;80.72;100636.31;5049763;28;20190;-74
2023/06/12 04:22:02;;;;;;;0.00;0.00;;;;;;;14.16;79.55;100640.75;5050158;28;20179;-75
2023/06/12 04:24:30;;;;;;;0.00;0.00;;;;;;;14.22;79.05;100635.88;5050180;28;20689;-75
2023/06/12 04:27:00;;;;;;;5.10;1.03;;;;;;;14.46;78.71;100643.53;5049928;28;20171;-73
2023/06/12 04:29:26;;;;;;;0.37;0.37;;;;;;;14.71;78.03;100639.00;5048501;28;20183;-75
2023/06/12 04:31:54;;;;;;;0.00;0.00;;;;;;;14.89;77.86;100644.03;5050449;28;20175;-75
2023/06/12 04:34:20;;;;;;;0.00;0.00;;;;;;;15.04;77.68;100644.56;5050085;28;20572;-75
2023/06/12 04:36:45;;;;;;;0.00;0.00;;;;;;;15.13;77.69;100642.56;5050361;28;20183;-76
2023/06/12 04:39:13;;;;;;;0.53;0.53;;;;;;;15.16;78.12;100645.44;5049795;28;20649;-76
2023/06/12 04:41:40;;;;;;;0.00;0.00;;;;;;;15.12;78.40;100641.75;5050065;28;20179;-77
2023/06/12 04:44:06;;;;;;;0.00;0.00;;;;;;;15.31;77.15;100643.19;5049991;28;20206;-77
2023/06/12 04:46:32;;;;;;;0.00;0.00;;;;;;;15.27;77.14;100634.03;5048997;28;20179;-76
2023/06/12 04:48:59;;;;;;;0.00;0.00;;;;;;;15.41;77.17;100631.78;5051979;28;20194;-75
2023/06/12 04:51:24;;;;;;;0.00;0.00;;;;;;;15.55;78.20;100631.47;5050121;28;20175;-76
2023/06/12 04:53:49;;;;;;;0.00;0.00;;;;;;;15.55;77.71;100626.78;5050174;28;20195;-76
2023/06/12 04:56:20;;;;;;;0.10;0.10;;;;;;;15.63;78.51;100628.69;5049619;28;20262;-76
2023/06/12 04:58:46;;;;;;;0.00;0.00;;;;;;;15.75;78.26;100634.19;5049107;28;20214;-75
2023/06/12 05:01:11;;;;;;;0.60;0.60;;;;;;;15.85;78.32;100627.44;5049663;28;20214;-76
2023/06/12 05:03:38;;;;;;;0.17;0.13;;;;;;;15.92;77.58;100629.66;5048406;28;20317;-76
2023/06/12 05:06:06;;;;;;;0.00;0.00;;;;;;;15.99;77.36;100638.13;5052677;28;20649;-76
2023/06/12 05:08:31;;;;;;;0.00;0.00;;;;;;;16.14;77.16;100639.41;5051937;28;20175;-76
2023/06/12 05:10:56;;;;;;;0.00;0.00;;;;;;;16.26;76.70;100629.19;5053159;28;20194;-74
2023/06/12 05:13:22;;;;;;;0.00;0.00;;;;;;;16.40;76.78;100633.56;5053429;28;20244;-76
2023/06/12 05:15:47;;;;;;;0.60;0.60;;;;;;;16.52;76.39;100634.34;5053557;28;20559;-76
2023/06/12 05:18:13;;;;;;;0.73;0.73;;;;;;;16.71;74.85;100632.97;5052998;28;20191;-76
2023/06/12 05:20:38;;;;;;;0.00;0.00;;;;;;;16.90;74.75;100636.69;5051696;28;20191;-76
2023/06/12 05:23:05;;;;;;;5.30;0.57;;;;;;;17.04;73.62;100628.03;5052914;28;20214;-76
2023/06/12 05:25:30;;;;;;;0.10;0.10;;;;;;;17.22;72.73;100626.59;5053184;28;20175;-76
2023/06/12 05:27:56;;;;;;;0.00;0.00;;;;;;;17.45;73.45;100645.34;5052912;28;20634;-73
2023/06/12 05:30:21;;;;;;;0.47;0.27;;;;;;;17.48;72.67;100644.66;5052909;28;20178;-76
2023/06/12 05:32:46;;;;;;;0.00;0.00;;;;;;;17.42;73.02;100648.84;5051815;28;20707;-75
2023/06/12 05:35:12;;;;;;;0.20;0.20;;;;;;;17.36;73.11;100650.22;5051777;28;20218;-76
2023/06/12 05:37:37;;;;;;;0.20;0.20;;;;;;;17.35;73.46;100648.63;5051557;28;20198;-76
2023/06/12 05:40:05;;;;;;;0.00;0.00;;;;;;;17.41;73.56;100650.00;5052383;28;20309;-76
2023/06/12 05:42:30;;;;;;;0.27;0.27;;;;;;;17.47;72.81;100645.81;5040944;28;20195;-74
2023/06/12 05:44:56;;;;;;;0.60;0.53;;;;;;;17.56;71.84;100646.47;5034567;28;20179;-75
2023/06/12 05:47:21;;;;;;;0.23;0.23;;;;;;;17.59;71.99;100647.72;5043862;28;20175;-76
2023/06/12 05:49:46;;;;;;;0.17;0.17;;;;;;;17.45;71.93;100657.22;5052201;28;20183;-77
2023/06/12 05:52:12;;;;;;;0.40;0.40;;;;;;;17.59;72.84;100661.53;5052135;28;20254;-75
2023/06/12 05:54:37;;;;;;;0.20;0.20;;;;;;;17.66;75.03;100673.59;5052169;28;20656;-76
2023/06/12 05:57:03;;;;;;;0.67;0.67;;;;;;;17.53;77.08;100666.50;5052306;28;20190;-77
2023/06/12 05:59:28;;;;;;;2.70;1.97;;;;;;;17.67;76.99;100666.91;5052219;28;20197;-76
2023/06/12 06:01:55;;;;;;;1.00;0.77;;;;;;;17.71;76.38;100665.06;5051270;28;20179;-75
2023/06/12 06:04:20;;;;;;;0.33;0.33;;;;;;;17.89;76.74;100673.00;5051089;28;20203;-77
2023/06/12 06:06:47;;;;;;;0.23;0.23;;;;;;;17.97;76.41;100674.81;5051393;28;20202;-75
2023/06/12 06:09:13;;;;;;;0.30;0.30;;;;;;;18.21;76.21;100671.06;5051670;28;20187;-75
2023/06/12 06:11:39;;;;;;;0.30;0.30;;;;;;;18.41;73.60;100670.00;5048097;28;20179;-76
2023/06/12 06:14:04;;;;;;;0.60;0.60;;;;;;;18.66;72.77;100667.81;5050908;28;20210;-74
2023/06/12 06:16:29;;;;;;;0.90;0.73;;;;;;;18.73;73.19;100666.03;5052111;28;20175;-77
2023/06/12 06:18:55;;;;;;;0.50;0.50;;;;;;;18.86;73.48;100679.75;5042275;28;20203;-76
2023/06/12 06:21:20;;;;;;;0.87;0.20;;;;;;;18.96;73.61;100681.97;5044635;28;20194;-77
2023/06/12 06:23:45;;;;;;;1.90;1.80;;;;;;;19.12;73.97;100688.25;5052127;28;20227;-77
2023/06/12 06:26:11;;;;;;;0.20;0.20;;;;;;;19.23;72.14;100674.59;5051907;28;20185;-76
2023/06/12 06:28:37;;;;;;;0.50;0.50;;;;;;;19.39;72.43;100683.66;5051881;28;20167;-74
2023/06/12 06:31:03;;;;;;;0.93;0.93;;;;;;;19.47;70.97;100682.63;5051653;28;20193;-77
2023/06/12 06:33:30;;;;;;;0.30;0.30;;;;;;;19.50;70.56;100678.31;5051438;28;20202;-77
2023/06/12 06:35:55;;;;;;;0.47;0.40;;;;;;;19.55;69.44;100680.84;5051602;28;20183;-76
2023/06/12 06:38:24;;;;;;;0.40;0.27;;;;;;;19.58;69.35;100689.22;5051114;28;20202;-76
2023/06/12 06:40:50;;;;;;;0.83;0.63;;;;;;;19.51;68.98;100685.47;5050750;28;20186;-74
2023/06/12 06:43:15;;;;;;;0.43;0.43;;;;;;;19.64;70.43;100698.03;5051233;28;20191;-76
2023/06/12 06:45:40;;;;;;;2.83;1.73;;;;;;;19.78;70.21;100698.31;5051164;28;20188;-76
2023/06/12 06:48:07;;;;;;;0.47;0.47;;;;;;;19.86;70.39;100697.28;5051451;28;20176;-76
2023/06/12 06:50:32;;;;;;;0.83;0.83;;;;;;;19.98;71.12;100701.06;5049922;28;20181;-76
2023/06/12 06:52:58;;;;;;;0.00;0.00;;;;;;;19.95;69.57;100696.22;5051161;28;20205;-81
2023/06/12 06:55:23;;;;;;;0.47;0.47;;;;;;;20.08;70.16;100706.78;5056268;28;20184;-79
2023/06/12 06:57:54;;;;;;;0.00;0.00;;;;;;;20.18;69.73;100702.59;5053093;28;20203;-76
2023/06/12 07:00:21;;;;;;;0.20;0.20;;;;;;;20.27;70.23;100699.59;5053736;28;20191;-80
2023/06/12 07:02:49;;;;;;;0.97;0.90;;;;;;;20.35;70.39;100712.38;5059457;28;20198;-81
2023/06/12 07:05:15;;;;;;;0.73;0.73;;;;;;;20.38;70.12;100706.09;5057110;28;20545;-77
2023/06/12 07:07:43;;;;;;;1.90;0.73;;;;;;;20.59;70.44;100714.81;5055380;28;20177;-82
2023/06/12 07:10:09;;;;;;;1.13;0.90;;;;;;;20.67;69.75;100710.94;5058238;28;20195;-78
2023/06/12 07:12:34;;;;;;;24.43;1.93;;;;;;;20.84;70.20;100708.84;5058035;28;20195;-78
2023/06/12 07:15:00;;;;;;;0.20;0.20;;;;;;;20.98;67.09;100698.75;5059562;28;20219;-77
2023/06/12 07:17:25;;;;;;;0.00;0.00;;;;;;;20.96;66.84;100686.38;5061094;28;20735;-78
2023/06/12 07:19:50;;;;;;;1.73;1.73;;;;;;;21.09;67.80;100698.88;5059728;28;20187;-77
2023/06/12 07:22:16;;;;;;;1.40;1.40;;;;;;;21.10;66.73;100692.94;5054050;28;20268;-75
2023/06/12 07:24:41;;;;;;;0.00;0.00;;;;;;;21.21;66.82;100693.06;5056001;28;20189;-77
2023/06/12 07:27:07;;;;;;;0.13;0.13;;;;;;;21.33;67.47;100703.97;5054660;28;20184;-77
2023/06/12 07:29:32;;;;;;;0.20;0.20;;;;;;;21.48;65.16;100693.03;5054431;28;20180;-75
2023/06/12 07:31:57;;;;;;;0.00;0.00;;;;;;;21.56;64.24;100697.50;5055945;28;20213;-76
2023/06/12 07:34:23;;;;;;;0.67;0.50;;;;;;;21.59;65.17;100702.31;5056136;28;20234;-77
2023/06/12 07:36:48;;;;;;;0.93;0.93;;;;;;;21.59;65.22;100700.34;5053321;28;20651;-75
2023/06/12 07:39:13;;;;;;;0.17;0.17;;;;;;;21.64;64.96;100697.19;5054503;28;20664;-78
2023/06/12 07:41:42;;;;;;;0.97;0.97;;;;;;;21.81;65.13;100692.19;5054912;28;20189;-76
2023/06/12 07:44:07;;;;;;;1.67;1.57;;;;;;;21.99;63.41;100696.00;5054153;28;20192;-76
2023/06/12 07:46:33;;;;;;;1.60;1.50;;;;;;;22.15;63.33;100687.41;5054344;28;20265;-75
2023/06/12 07:48:58;;;;;;;1.07;1.07;;;;;;;22.27;62.72;100695.44;5052535;28;20179;-78
2023/06/12 07:51:23;;;;;;;0.10;0.10;;;;;;;22.45;63.87;100710.34;5051770;28;20653;-77
2023/06/12 07:53:49;;;;;;;0.83;0.83;;;;;;;22.73;61.93;100700.59;5049557;28;20280;-77
2023/06/12 07:56:16;;;;;;;0.30;0.30;;;;;;;22.61;60.62;100692.56;5053392;28;20183;-77
2023/06/12 07:58:41;;;;;;;0.40;0.40;;;;;;;22.70;62.01;100690.22;5054932;28;20217;-76
2023/06/12 08:01:07;;;;;;;0.57;0.57;;;;;;;22.91;60.89;100687.59;5054946;28;20213;-78
2023/06/12 08:03:38;;;;;;;1.70;1.60;;;;;;;23.03;59.71;100669.75;5052638;28;20551;-76
2023/06/12 08:06:05;;;;;;;1.13;1.13;;;;;;;23.22;58.26;100660.28;5052862;28;20202;-75
2023/06/12 08:08:41;;;;;;;1.70;1.60;;;;;;;23.18;56.44;100654.69;5049122;28;20195;-77
2023/06/12 08:11:07;;;;;;;0.53;0.53;;;;;;;23.40;57.33;100664.72;5051457;28;20662;-77
2023/06/12 08:13:32;;;;;;;6.90;0.90;;;;;;;23.56;56.54;100664.38;5053913;28;20206;-76
2023/06/12 08:15:57;;;;;;;0.50;0.50;;;;;;;23.54;57.48;100665.97;5055186;28;20185;-76
2023/06/12 08:18:23;;;;;;;1.27;1.13;;;;;;;23.76;56.97;100667.66;5054392;28;20273;-76
2023/06/12 08:20:48;;;;;;;1.03;1.03;;;;;;;23.84;53.59;100644.13;5053358;28;20558;-78
2023/06/12 08:23:13;;;;;;;1.57;1.47;;;;;;;23.92;49.63;100634.56;5058676;28;20202;-77
2023/06/12 08:25:39;;;;;;;2.93;2.23;;;;;;;23.90;51.23;100636.97;5052037;28;20176;-75
2023/06/12 08:28:04;;;;;;;0.70;0.70;;;;;;;24.01;50.99;100635.00;5053337;28;20198;-77
2023/06/12 08:30:30;;;;;;;0.10;0.10;;;;;;;24.17;49.78;100629.00;5051270;28;20237;-77
2023/06/12 08:32:55;;;;;;;1.20;0.93;;;;;;;24.15;52.02;100648.13;5051253;28;20198;-77
2023/06/12 08:35:21;;;;;;;1.03;1.03;;;;;;;24.15;50.38;100634.16;5051123;28;20187;-77
2023/06/12 08:37:46;;;;;;;4.97;1.93;;;;;;;23.93;50.09;100627.81;5052214;28;20231;-78
2023/06/12 08:40:11;;;;;;;1.50;1.40;;;;;;;24.12;47.66;100628.59;5053226;28;20654;-77
2023/06/12 08:42:37;;;;;;;2.17;1.97;;;;;;;24.16;47.81;100615.41;5054622;28;20203;-77
2023/06/12 08:45:04;;;;;;;1.63;1.40;;;;;;;24.22;46.78;100616.63;5056842;28;20533;-77
2023/06/12 08:47:35;;;;;;;0.50;0.50;;;;;;;24.32;50.31;100635.41;5056331;28;20225;-78
2023/06/12 08:50:00;;;;;;;2.37;2.13;;;;;;;24.34;50.27;100633.00;5047502;28;20214;-77
2023/06/12 08:52:27;;;;;;;0.83;0.83;;;;;;;24.38;50.84;100630.22;5050624;28;20286;-78
2023/06/12 08:54:52;;;;;;;0.67;0.47;;;;;;;24.42;48.86;100620.63;5050653;28;20260;-78
2023/06/12 08:57:19;;;;;;;1.30;1.20;;;;;;;24.32;47.67;100616.66;5050002;28;20235;-78
2023/06/12 08:59:44;;;;;;;1.53;1.43;;;;;;;24.21;48.68;100620.63;5049645;28;20183;-77
2023/06/12 09:02:12;;;;;;;2.67;2.03;;;;;;;24.07;48.92;100621.44;5053582;28;20183;-77
2023/06/12 09:04:52;;;;;;;2.30;2.17;;;;;;;23.97;48.93;100625.00;5051819;28;20547;-77
2023/06/12 09:07:18;;;;;;;0.70;0.70;;;;;;;24.20;47.58;100619.81;5048110;28;20192;-77
2023/06/12 09:09:45;;;;;;;1.73;1.03;;;;;;;24.16;45.79;100616.25;5039204;28;20207;-76
2023/06/12 09:12:15;;;;;;;1.33;1.23;;;;;;;24.13;46.22;100613.44;5046956;28;20171;-77
2023/06/12 09:14:44;;;;;;;1.37;1.37;;;;;;;24.30;45.49;100610.69;5057735;28;20187;-77
2023/06/12 09:17:10;;;;;;;0.40;0.40;;;;;;;24.39;47.26;100618.63;5049309;28;20198;-76
2023/06/12 09:19:46;;;;;;;4.60;3.03;;;;;;;24.28;46.65;100606.63;5039031;28;20183;-78
2023/06/12 09:22:13;;;;;;;1.57;1.17;;;;;;;24.44;45.66;100606.25;5056193;28;20179;-75
2023/06/12 09:24:40;;;;;;;0.90;0.90;;;;;;;24.24;44.57;100603.84;5047279;28;20290;-77
2023/06/12 09:27:06;;;;;;;16.90;8.10;;;;;;;23.98;44.51;100602.28;5048133;28;20180;-77
2023/06/12 09:29:36;;;;;;;2.67;2.47;;;;;;;23.99;44.93;100601.06;5055106;28;20665;-78
2023/06/12 09:32:14;;;;;;;2.60;2.27;;;;;;;24.18;44.97;100597.09;5047792;28;20180;-77
2023/06/12 09:34:48;;;;;;;1.67;1.57;;;;;;;24.26;44.88;100595.88;5050576;28;20176;-78
2023/06/12 09:37:14;;;;;;;1.10;1.00;;;;;;;24.26;43.61;100603.44;5052733;28;20180;-78
2023/06/12 09:39:41;;;;;;;1.00;1.00;;;;;;;24.47;44.28;100611.84;5052439;28;20225;-77
2023/06/12 09:42:07;;;;;;;0.70;0.70;;;;;;;24.52;42.76;100591.06;5058238;28;20176;-78
2023/06/12 09:44:32;;;;;;;1.50;1.20;;;;;;;24.22;42.42;100583.91;5058453;28;20185;-78
2023/06/12 09:47:00;;;;;;;1.33;1.23;;;;;;;24.35;43.15;100589.13;5049840;28;20199;-76
2023/06/12 09:49:26;;;;;;;1.53;1.43;;;;;;;24.24;41.13;100573.13;5041210;28;20176;-78
2023/06/12 09:51:52;;;;;;;1.10;1.10;;;;;;;24.46;41.91;100582.31;5056664;28;20210;-76
2023/06/12 09:54:21;;;;;;;1.30;1.20;;;;;;;24.63;41.29;100581.47;5056985;28;20206;-78
2023/06/12 09:56:48;;;;;;;0.83;0.83;;;;;;;24.93;40.29;100582.97;5056711;28;20205;-78
2023/06/12 09:59:18;;;;;;;0.60;0.40;;;;;;;24.85;39.28;100570.19;5054816;28;20221;-78
2023/06/12 10:01:51;;;;;;;1.00;0.97;;;;;;;24.77;38.00;100563.06;5057206;28;20188;-78
2023/06/12 10:04:45;;;;;;;1.33;1.23;;;;;;;24.50;36.00;100548.78;5056780;28;20211;-77
2023/06/12 10:07:18;;;;;;;0.30;0.30;;;;;;;24.69;37.71;100576.25;5053783;28;20211;-78
2023/06/12 10:09:47;;;;;;;0.57;0.57;;;;;;;24.59;35.94;100563.94;5056178;28;20191;-77
2023/06/12 10:12:12;;;;;;;1.00;0.87;;;;;;;24.62;35.25;100567.91;5053467;28;20236;-77
2023/06/12 10:14:38;;;;;;;0.30;0.30;;;;;;;24.57;35.37;100565.50;5054807;28;20171;-78
2023/06/12 10:17:04;;;;;;;0.73;0.67;;;;;;;24.54;35.53;100566.31;5054991;28;20212;-77
2023/06/12 10:19:31;;;;;;;1.70;1.57;;;;;;;24.56;36.21;100575.09;5054624;28;20207;-77
2023/06/12 10:21:57;;;;;;;2.40;2.23;;;;;;;24.70;35.97;100572.25;5047161;28;20656;-77
2023/06/12 10:24:23;;;;;;;1.00;1.00;;;;;;;24.69;36.17;100579.03;5055336;28;20227;-78
2023/06/12 10:26:51;;;;;;;0.13;0.13;;;;;;;24.98;36.83;100570.53;5047572;28;20242;-78
2023/06/12 10:29:33;;;;;;;0.20;0.20;;;;;;;25.24;37.21;100581.22;5045767;28;20191;-77
2023/06/12 10:32:08;;;;;;;0.60;0.60;;;;;;;25.44;36.39;100579.50;5054475;28;20195;-78
2023/06/12 10:34:35;;;;;;;0.60;0.60;;;;;;;25.26;35.54;100562.03;5041714;28;20236;-76
2023/06/12 10:37:27;;;;;;;3.17;1.33;;;;;;;24.80;33.77;100573.44;5055178;28;20186;-78
2023/06/12 10:40:02;;;;;;;0.83;0.83;;;;;;;24.74;34.26;100570.25;5054109;28;20614;-77
2023/06/12 10:42:40;;;;;;;1.67;1.57;;;;;;;24.63;34.70;100578.69;5054300;28;20215;-77
2023/06/12 10:45:23;;;;;;;0.10;0.10;;;;;;;24.66;34.79;100565.88;5048610;28;20715;-78
2023/06/12 10:48:04;;;;;;;0.13;0.13;;;;;;;24.50;34.64;100560.75;5054735;28;20640;-77
2023/06/12 10:50:36;;;;;;;0.73;0.73;;;;;;;24.99;35.51;100561.75;5052929;28;20213;-78
2023/06/12 10:53:06;;;;;;;0.90;0.90;;;;;;;24.81;34.13;100559.03;5053664;28;20216;-76
2023/06/12 10:55:36;;;;;;;0.27;0.27;;;;;;;24.89;34.33;100555.03;5054200;28;20221;-77
2023/06/12 10:58:06;;;;;;;0.37;0.37;;;;;;;24.99;34.56;100561.75;5053631;28;20195;-77
2023/06/12 11:00:33;;;;;;;0.50;0.43;;;;;;;24.78;34.58;100551.47;5046189;28;20661;-78
2023/06/12 11:03:00;;;;;;;1.50;1.13;;;;;;;24.89;34.90;100552.22;5053203;28;20222;-76
2023/06/12 11:05:27;;;;;;;1.50;1.40;;;;;;;24.58;34.66;100544.75;5051986;28;20684;-77
2023/06/12 11:08:03;;;;;;;5.27;0.50;;;;;;;24.93;35.15;100561.38;5053368;28;20176;-77
2023/06/12 11:10:30;;;;;;;0.60;0.53;;;;;;;24.84;33.60;100541.44;5053874;28;20371;-78
2023/06/12 11:12:56;;;;;;;0.40;0.40;;;;;;;25.25;35.32;100560.44;5054375;28;20195;-77
2023/06/12 11:15:22;;;;;;;9.00;1.07;;;;;;;25.54;35.13;100549.88;5054151;28;20179;-78
2023/06/12 11:17:49;;;;;;;4.83;1.10;;;;;;;25.18;33.93;100541.72;5055812;28;20191;-77
2023/06/12 11:20:16;;;;;;;0.20;0.20;;;;;;;24.93;33.85;100535.44;5053784;28;20191;-78
2023/06/12 11:22:41;;;;;;;0.57;0.57;;;;;;;25.30;34.23;100546.03;5053737;28;20214;-78